.
WxDataArchive / Data Records for 2014-03-26
2014-03-25 March 2014 2014-03-27

Data Records for Wednesday, 26 March 2014

Time	Temp	Chill	HIndex	Humid	Dewpt	 Wind 	HiWind	WindDir	Rain 	Barom
-----	----	-----	------	-----	-----	------	------	-------	-----	-----
00:00	18.9	18.9	18.9	62	8.1	0	3	270	0.00	30.231 
00:05	18.8	18.8	18.8	63	8.3	0	1	270	0.00	30.231 
00:10	18.8	18.8	18.8	63	8.3	0	1	270	0.00	30.231 
00:15	18.6	18.6	18.6	63	8.1	0	2	270	0.00	30.230 
00:20	18.4	18.4	18.4	63	7.9	0	1	270	0.00	30.230 
00:25	18.4	18.4	18.4	64	8.3	0	1	270	0.00	30.230 
00:30	18.3	18.3	18.3	64	8.2	0	1	270	0.00	30.231 
00:35	18.3	18.3	18.3	64	8.2	0	0	---	0.00	30.231 
00:40	18.1	18.1	18.1	65	8.3	0	0	---	0.00	30.231 
00:45	18.0	18.0	18.0	65	8.3	0	1	270	0.00	30.238 
00:50	18.0	18.0	18.0	65	8.3	0	0	---	0.00	30.238 
00:55	17.8	17.8	17.8	66	8.4	0	0	---	0.00	30.238 
01:00	17.8	17.8	17.8	66	8.4	0	0	---	0.00	30.237 
01:05	17.7	17.7	17.7	66	8.3	0	0	---	0.00	30.237 
01:10	17.5	17.5	17.5	66	8.1	0	0	---	0.00	30.237 
01:15	17.3	17.3	17.3	67	8.3	0	0	---	0.00	30.241 
01:20	17.2	17.2	17.2	67	8.2	0	0	---	0.00	30.241 
01:25	17.0	17.0	17.0	67	8.0	0	0	---	0.00	30.241 
01:30	16.9	16.9	16.9	68	8.2	0	0	---	0.00	30.244 
01:35	16.7	16.7	16.7	68	8.0	0	0	---	0.00	30.244 
01:40	16.5	16.5	16.5	68	7.8	0	0	---	0.00	30.244 
01:45	16.4	16.4	16.4	69	8.0	0	0	---	0.00	30.245 
01:50	16.2	16.2	16.2	69	7.8	0	0	---	0.00	30.245 
01:55	15.9	15.9	15.9	69	7.6	0	0	---	0.00	30.245 
02:00	15.7	15.7	15.7	69	7.4	0	0	---	0.00	30.247 
02:05	15.6	15.6	15.6	70	7.6	0	0	---	0.00	30.247 
02:10	15.6	15.6	15.6	71	7.9	0	0	---	0.00	30.247 
02:15	15.6	15.6	15.6	72	8.2	0	0	---	0.00	30.255 
02:20	15.7	15.7	15.7	72	8.3	0	0	---	0.00	30.255 
02:25	15.7	15.7	15.7	73	8.6	0	0	---	0.00	30.255 
02:30	16.1	16.1	16.1	73	9.0	0	0	---	0.00	30.252 
02:35	16.2	16.2	16.2	74	9.4	0	0	---	0.00	30.252 
02:40	16.4	16.4	16.4	74	9.6	0	0	---	0.00	30.252 
02:45	16.5	16.5	16.5	74	9.7	0	0	---	0.00	30.252 
02:50	16.7	16.7	16.7	74	9.9	0	0	---	0.00	30.252 
02:55	16.9	16.9	16.9	74	10.1	0	0	---	0.00	30.252 
03:00	17.0	17.0	17.0	74	10.2	0	0	---	0.00	30.250 
03:05	17.0	17.0	17.0	74	10.2	0	0	---	0.00	30.250 
03:10	17.0	17.0	17.0	74	10.2	0	0	---	0.00	30.250 
03:15	17.0	17.0	17.0	74	10.2	0	0	---	0.00	30.251 
03:20	17.2	17.2	17.2	74	10.4	0	0	---	0.00	30.251 
03:25	17.2	17.2	17.2	74	10.4	0	0	---	0.00	30.251 
03:30	17.3	17.3	17.3	74	10.5	0	0	---	0.00	30.250 
03:35	17.5	17.5	17.5	74	10.7	0	0	---	0.00	30.250 
03:40	17.7	17.7	17.7	74	10.8	0	0	---	0.00	30.250 
03:45	17.8	17.8	17.8	74	10.9	0	0	---	0.00	30.257 
03:50	18.1	18.1	18.1	74	11.2	0	0	---	0.00	30.257 
03:55	18.3	18.3	18.3	74	11.4	0	0	---	0.00	30.257 
04:00	18.4	18.4	18.4	73	11.2	0	0	---	0.00	30.252 
04:05	18.4	18.4	18.4	73	11.2	0	0	---	0.00	30.252 
04:10	18.6	18.6	18.6	73	11.4	0	0	---	0.00	30.252 
04:15	18.6	18.6	18.6	73	11.4	0	0	---	0.00	30.251 
04:20	18.6	18.6	18.6	73	11.4	0	0	---	0.00	30.251 
04:25	18.6	18.6	18.6	73	11.4	0	0	---	0.00	30.251 
04:30	18.6	18.6	18.6	72	11.1	0	0	---	0.00	30.255 
04:35	18.6	18.6	18.6	73	11.4	0	0	---	0.00	30.255 
04:40	18.8	18.8	18.8	72	11.3	0	1	270	0.00	30.255 
04:45	18.8	18.8	18.8	72	11.3	0	0	---	0.00	30.263 
04:50	18.8	18.8	18.8	72	11.3	0	0	---	0.00	30.263 
04:55	18.8	18.8	18.8	72	11.3	0	0	---	0.00	30.263 
05:00	18.8	18.8	18.8	72	11.3	0	0	---	0.00	30.269 
05:05	18.8	18.8	18.8	72	11.3	0	0	---	0.00	30.269 
05:10	18.9	18.9	18.9	72	11.4	0	0	---	0.00	30.269 
05:15	18.9	18.9	18.9	72	11.4	0	0	---	0.00	30.275 
05:20	18.9	18.9	18.9	72	11.4	0	0	---	0.00	30.275 
05:25	19.1	19.1	19.1	73	11.9	0	0	---	0.00	30.275 
05:30	19.1	19.1	19.1	73	11.9	0	0	---	0.00	30.278 
05:35	19.1	19.1	19.1	73	11.9	0	0	---	0.00	30.278 
05:40	19.1	19.1	19.1	73	11.9	0	0	---	0.00	30.278 
05:45	19.1	19.1	19.1	73	11.9	0	0	---	0.00	30.281 
05:50	19.1	19.1	19.1	73	11.9	0	0	---	0.00	30.281 
05:55	19.1	19.1	19.1	73	11.9	0	0	---	0.00	30.281 
06:00	19.1	19.1	19.1	73	11.9	0	0	---	0.00	30.282 
06:05	19.1	19.1	19.1	73	11.9	0	0	---	0.00	30.282 
06:10	19.1	19.1	19.1	72	11.6	0	0	---	0.00	30.282 
06:15	18.9	18.9	18.9	72	11.4	0	0	---	0.00	30.293 
06:20	18.8	18.8	18.8	72	11.3	0	0	---	0.00	30.293 
06:25	18.6	18.6	18.6	72	11.1	0	0	---	0.00	30.293 
06:30	18.4	18.4	18.4	72	10.9	0	0	---	0.00	30.294 
06:35	18.3	18.3	18.3	72	10.8	0	0	---	0.00	30.294 
06:40	18.1	18.1	18.1	72	10.6	0	0	---	0.00	30.294 
06:45	18.0	18.0	18.0	73	10.8	0	0	---	0.00	30.301 
06:50	17.8	17.8	17.8	73	10.6	0	0	---	0.00	30.301 
06:55	17.8	17.8	17.8	73	10.6	0	0	---	0.00	30.301 
07:00	17.7	17.7	17.7	73	10.5	0	0	---	0.00	30.310 
07:05	17.7	17.7	17.7	74	10.8	0	0	---	0.00	30.310 
07:10	17.8	17.8	17.8	74	10.9	0	0	---	0.00	30.310 
07:15	17.8	17.8	17.8	74	10.9	0	0	---	0.00	30.315 
07:20	18.0	18.0	18.0	75	11.4	0	0	---	0.00	30.315 
07:25	18.0	18.0	18.0	75	11.4	0	0	---	0.00	30.315 
07:30	18.0	18.0	18.0	75	11.4	0	0	---	0.00	30.316 
07:35	18.0	18.0	18.0	75	11.4	0	0	---	0.00	30.316 
07:40	18.0	18.0	18.0	75	11.4	0	0	---	0.00	30.316 
07:45	18.0	18.0	18.0	74	11.1	0	0	---	0.00	30.322 
07:50	18.1	18.1	18.1	75	11.5	0	0	---	0.00	30.322 
07:55	18.1	18.1	18.1	75	11.5	0	0	---	0.00	30.322 
08:00	18.1	18.1	18.1	75	11.5	0	0	---	0.00	30.329 
08:05	18.1	18.1	18.1	75	11.5	0	0	---	0.00	30.329 
08:10	18.1	18.1	18.1	74	11.2	0	0	---	0.00	30.329 
08:15	18.1	18.1	18.1	75	11.5	0	0	---	0.00	30.333 
08:20	18.1	18.1	18.1	75	11.5	0	0	---	0.00	30.333 
08:25	18.1	18.1	18.1	75	11.5	0	0	---	0.00	30.333 
08:30	18.3	18.3	18.3	75	11.7	0	0	---	0.00	30.344 
08:35	18.6	18.6	18.6	76	12.3	0	0	---	0.00	30.344 
08:40	19.7	19.7	19.7	75	13.1	0	0	---	0.00	30.344 
08:45	20.5	20.5	20.5	74	13.6	0	1	270	0.00	30.346 
08:50	21.1	21.1	21.1	71	13.2	0	1	270	0.00	30.346 
08:55	21.4	21.4	21.4	68	12.5	0	2	270	0.00	30.346 
09:00	21.4	21.4	21.4	65	11.5	0	1	270	0.00	30.361 
09:05	21.8	21.8	21.8	63	11.2	0	1	270	0.00	30.361 
09:10	21.9	21.9	21.9	61	10.5	0	1	270	0.00	30.361 
09:15	22.2	22.2	22.2	59	10.1	0	1	270	0.00	30.363 
09:20	22.4	22.4	22.4	58	9.9	0	2	270	0.00	30.363 
09:25	22.4	22.4	22.4	55	8.7	0	1	270	0.00	30.363 
09:30	22.5	22.5	22.5	55	8.8	0	1	270	0.00	30.374 
09:35	22.9	22.9	22.9	54	8.8	0	1	270	0.00	30.374 
09:40	23.0	23.0	23.0	53	8.4	0	1	270	0.00	30.374 
09:45	23.3	23.3	23.3	52	8.3	1	3	270	0.00	30.376 
09:50	23.9	23.9	23.9	51	8.4	0	1	270	0.00	30.376 
09:55	24.4	24.4	24.4	51	8.9	1	4	270	0.00	30.376 
10:00	24.4	24.4	24.4	50	8.5	0	4	270	0.00	30.373 
10:05	24.1	24.1	24.1	50	8.2	0	2	270	0.00	30.373 
10:10	24.4	24.4	24.4	49	8.0	0	2	270	0.00	30.373 
10:15	24.7	24.7	24.7	50	8.7	0	1	270	0.00	30.373 
10:20	24.7	24.7	24.7	47	7.4	0	2	270	0.00	30.373 
10:25	24.8	24.8	24.8	47	7.5	0	2	270	0.00	30.373 
10:30	25.0	25.0	25.0	47	7.6	0	2	270	0.00	30.379 
10:35	25.3	25.3	25.3	46	7.4	0	1	270	0.00	30.379 
10:40	25.1	25.1	25.1	46	7.3	0	2	270	0.00	30.379 
10:45	25.1	25.1	25.1	47	7.7	0	2	270	0.00	30.385 
10:50	25.6	25.6	25.6	47	8.2	1	3	270	0.00	30.385 
10:55	26.0	26.0	26.0	46	8.1	1	4	270	0.00	30.385 
11:00	26.1	26.1	26.1	46	8.2	0	2	292	0.00	30.375 
11:05	27.0	27.0	27.0	47	9.5	0	3	292	0.00	30.375 
11:10	27.8	27.8	27.8	48	10.7	1	4	292	0.00	30.375 
11:15	28.2	28.2	28.2	47	10.6	0	2	135	0.00	30.374 
11:20	28.4	28.4	28.4	45	9.8	0	2	135	0.00	30.374 
11:25	28.2	28.2	28.2	45	9.6	1	4	270	0.00	30.374 
11:30	28.1	28.1	28.1	46	10.0	1	3	270	0.00	30.373 
11:35	28.4	28.4	28.4	48	11.2	0	1	270	0.00	30.373 
11:40	28.4	28.4	28.4	47	10.8	1	3	270	0.00	30.373 
11:45	28.5	28.5	28.5	47	10.9	1	3	112	0.00	30.371 
11:50	28.7	28.7	28.7	46	10.6	1	4	90	0.00	30.371 
11:55	28.5	28.5	28.5	46	10.4	1	4	90	0.00	30.371 
12:00	28.2	28.2	28.2	45	9.6	1	7	315	0.00	30.373 
12:05	28.4	28.4	28.4	45	9.8	1	2	315	0.00	30.373 
12:10	28.1	28.1	28.1	45	9.5	1	3	270	0.00	30.373 
12:15	28.5	28.5	28.5	46	10.4	1	2	270	0.00	30.372 
12:20	29.7	29.7	29.7	46	11.5	1	4	270	0.00	30.372 
12:25	30.0	30.0	30.0	43	10.2	1	3	270	0.00	30.372 
12:30	29.5	29.5	29.5	43	9.8	1	4	338	0.00	30.370 
12:35	28.8	28.8	28.8	43	9.2	0	2	315	0.00	30.370 
12:40	28.5	28.5	28.5	47	10.9	0	2	315	0.00	30.370 
12:45	29.0	29.0	29.0	48	11.8	0	3	315	0.00	30.371 
12:50	29.5	29.5	29.5	46	11.3	1	4	270	0.00	30.371 
12:55	29.3	29.3	29.3	44	10.1	1	3	248	0.00	30.371 
13:00	29.7	29.7	29.7	44	10.5	1	4	248	0.00	30.357 
13:05	30.0	30.0	30.0	43	10.2	1	4	270	0.00	30.357 
13:10	29.8	29.8	29.8	44	10.6	0	3	248	0.00	30.357 
13:15	29.7	29.7	29.7	46	11.5	1	3	248	0.00	30.349 
13:20	29.7	29.7	29.7	44	10.5	1	5	248	0.00	30.349 
13:25	29.4	29.4	29.4	44	10.2	1	4	248	0.00	30.349 
13:30	29.7	29.7	29.7	45	11.0	0	2	248	0.00	30.343 
13:35	30.4	30.4	30.4	44	11.1	1	4	248	0.00	30.343 
13:40	30.7	30.7	30.7	45	11.9	1	5	90	0.00	30.343 
13:45	31.3	31.3	31.3	48	13.9	2	6	112	0.00	30.340 
13:50	31.8	31.8	31.8	43	11.9	1	5	90	0.00	30.340 
13:55	31.8	31.8	31.8	43	11.9	1	4	90	0.00	30.340 
14:00	31.8	31.8	31.8	41	10.8	1	4	270	0.00	30.335 
14:05	31.9	31.9	31.9	43	12.0	1	3	270	0.00	30.335 
14:10	32.5	32.5	32.5	46	14.0	1	3	270	0.00	30.335 
14:15	32.9	32.9	32.9	43	12.9	1	4	270	0.00	30.327 
14:20	33.1	33.1	33.1	43	13.1	1	3	270	0.00	30.327 
14:25	33.2	33.2	33.2	44	13.7	1	4	45	0.00	30.327 
14:30	33.2	33.2	33.2	43	13.2	1	6	90	0.00	30.318 
14:35	33.2	33.2	33.2	43	13.2	1	5	248	0.00	30.318 
14:40	33.4	33.4	33.4	45	14.4	1	5	248	0.00	30.318 
14:45	34.0	34.0	34.0	45	14.9	1	3	248	0.00	30.316 
14:50	34.0	34.0	34.0	38	11.1	1	4	248	0.00	30.316 
14:55	33.7	33.7	33.7	41	12.5	1	5	68	0.00	30.316 
15:00	34.0	34.0	34.0	41	12.8	0	2	248	0.00	30.308 
15:05	34.1	34.1	34.1	43	14.0	1	5	112	0.00	30.308 
15:10	34.6	34.6	34.6	43	14.4	2	5	112	0.00	30.308 
15:15	34.6	34.6	34.6	41	13.3	1	3	90	0.00	30.292 
15:20	34.7	34.7	34.7	43	14.5	1	5	90	0.00	30.292 
15:25	35.0	35.0	35.0	43	14.8	0	3	90	0.00	30.292 
15:30	35.3	35.3	35.3	41	14.0	1	5	90	0.00	30.285 
15:35	35.2	35.2	35.2	41	13.9	1	4	248	0.00	30.285 
15:40	34.9	34.9	34.9	42	14.2	0	2	248	0.00	30.285 
15:45	35.0	35.0	35.0	42	14.3	1	3	248	0.00	30.285 
15:50	35.2	35.2	35.2	41	13.9	0	2	248	0.00	30.285 
15:55	35.5	35.5	35.5	41	14.2	1	4	90	0.00	30.285 
16:00	35.5	35.5	35.5	42	14.7	1	4	112	0.00	30.277 
16:05	36.0	36.0	36.0	40	14.0	1	4	112	0.00	30.277 
16:10	36.0	36.0	36.0	38	12.9	1	3	248	0.00	30.277 
16:15	35.9	35.9	35.9	39	13.4	1	3	248	0.00	30.271 
16:20	35.9	35.9	35.9	40	14.0	1	4	248	0.00	30.271 
16:25	35.5	35.5	35.5	40	13.6	1	4	0	0.00	30.271 
16:30	35.5	35.5	35.5	40	13.6	1	7	90	0.00	30.268 
16:35	35.0	35.0	35.0	40	13.1	1	4	90	0.00	30.268 
16:40	35.3	35.3	35.3	42	14.5	1	5	90	0.00	30.268 
16:45	35.6	35.6	35.6	42	14.8	1	4	68	0.00	30.255 
16:50	35.3	35.3	35.3	40	13.4	1	6	112	0.00	30.255 
16:55	35.3	35.3	35.3	40	13.4	2	12	112	0.00	30.255 
17:00	35.5	35.5	35.5	39	13.0	1	4	248	0.00	30.247 
17:05	35.5	35.5	35.5	41	14.2	1	5	45	0.00	30.247 
17:10	35.5	35.5	35.5	43	15.2	1	3	45	0.00	30.247 
17:15	35.9	35.9	35.9	40	14.0	1	2	22	0.00	30.245 
17:20	36.0	36.0	36.0	41	14.6	1	5	135	0.00	30.245 
17:25	36.5	36.5	36.5	39	13.9	1	4	248	0.00	30.245 
17:30	36.5	36.5	36.5	37	12.7	1	3	248	0.00	30.241 
17:35	36.5	36.5	36.5	39	13.9	1	3	248	0.00	30.241 
17:40	36.2	36.2	36.2	40	14.2	1	3	90	0.00	30.241 
17:45	36.2	36.2	36.2	38	13.1	1	7	90	0.00	30.241 
17:50	36.3	36.3	36.3	38	13.2	0	3	202	0.00	30.241 
17:55	36.6	36.6	36.6	37	12.8	0	3	225	0.00	30.241 
18:00	36.3	36.3	36.3	39	13.7	1	5	112	0.00	30.238 
18:05	36.2	36.2	36.2	40	14.2	0	2	112	0.00	30.238 
18:10	36.5	36.5	36.5	39	13.9	1	4	248	0.00	30.238 
18:15	36.2	36.2	36.2	39	13.7	1	4	90	0.00	30.237 
18:20	36.3	36.3	36.3	40	14.3	1	2	90	0.00	30.237 
18:25	36.2	36.2	36.2	39	13.7	0	2	225	0.00	30.237 
18:30	36.2	36.2	36.2	39	13.7	1	3	225	0.00	30.235 
18:35	36.0	36.0	36.0	39	13.5	1	2	225	0.00	30.235 
18:40	35.9	35.9	35.9	39	13.4	1	3	225	0.00	30.235 
18:45	35.9	35.9	35.9	41	14.5	0	1	225	0.00	30.230 
18:50	35.6	35.6	35.6	42	14.8	1	4	90	0.00	30.230 
18:55	35.5	35.5	35.5	41	14.2	0	1	90	0.00	30.230 
19:00	35.3	35.3	35.3	41	14.0	0	2	112	0.00	30.226 
19:05	35.2	35.2	35.2	41	13.9	0	3	112	0.00	30.226 
19:10	35.0	35.0	35.0	42	14.3	0	1	112	0.00	30.226 
19:15	34.9	34.9	34.9	40	13.1	1	2	112	0.00	30.226 
19:20	34.7	34.7	34.7	40	12.9	2	5	112	0.00	30.226 
19:25	34.7	34.7	34.7	42	14.0	0	2	112	0.00	30.226 
19:30	34.6	34.6	34.6	42	13.9	0	2	112	0.00	30.224 
19:35	34.3	34.3	34.3	43	14.2	0	2	112	0.00	30.224 
19:40	34.1	34.1	34.1	43	14.0	0	2	112	0.00	30.224 
19:45	34.0	34.0	34.0	43	13.9	0	1	112	0.00	30.221 
19:50	33.8	33.8	33.8	43	13.7	1	5	112	0.00	30.221 
19:55	33.7	33.7	33.7	43	13.6	0	1	112	0.00	30.221 
20:00	33.4	33.4	33.4	44	13.9	0	1	112	0.00	30.217 
20:05	33.1	33.1	33.1	45	14.1	0	1	112	0.00	30.217 
20:10	32.8	32.8	32.8	44	13.3	0	0	---	0.00	30.217 
20:15	32.5	32.5	32.5	45	13.5	0	1	112	0.00	30.213 
20:20	32.4	32.4	32.4	45	13.5	0	0	---	0.00	30.213 
20:25	32.1	32.1	32.1	45	13.2	0	0	---	0.00	30.213 
20:30	31.8	31.8	31.8	45	12.9	0	0	---	0.00	30.216 
20:35	31.6	31.6	31.6	46	13.2	0	0	---	0.00	30.216 
20:40	31.3	31.3	31.3	46	12.9	0	0	---	0.00	30.216 
20:45	31.0	31.0	31.0	47	13.2	0	0	---	0.00	30.222 
20:50	30.7	30.7	30.7	48	13.4	0	0	---	0.00	30.222 
20:55	30.3	30.3	30.3	48	13.0	0	0	---	0.00	30.222 
21:00	30.0	30.0	30.0	48	12.7	0	0	---	0.00	30.226 
21:05	29.7	29.7	29.7	50	13.4	0	0	---	0.00	30.226 
21:10	29.4	29.4	29.4	51	13.5	0	0	---	0.00	30.226 
21:15	29.3	29.3	29.3	53	14.3	0	0	---	0.00	30.225 
21:20	29.0	29.0	29.0	53	14.0	0	0	---	0.00	30.225 
21:25	28.8	28.8	28.8	54	14.3	0	0	---	0.00	30.225 
21:30	28.5	28.5	28.5	54	14.0	0	0	---	0.00	30.226 
21:35	28.4	28.4	28.4	54	13.9	0	0	---	0.00	30.226 
21:40	28.1	28.1	28.1	54	13.6	0	0	---	0.00	30.226 
21:45	27.9	27.9	27.9	56	14.3	0	0	---	0.00	30.225 
21:50	27.9	27.9	27.9	57	14.7	0	0	---	0.00	30.225 
21:55	27.8	27.8	27.8	57	14.6	0	0	---	0.00	30.225 
22:00	27.8	27.8	27.8	57	14.6	0	0	---	0.00	30.226 
22:05	27.6	27.6	27.6	57	14.4	0	0	---	0.00	30.226 
22:10	27.6	27.6	27.6	57	14.4	0	0	---	0.00	30.226 
22:15	27.6	27.6	27.6	59	15.2	0	0	---	0.00	30.219 
22:20	27.6	27.6	27.6	59	15.2	0	0	---	0.00	30.219 
22:25	27.6	27.6	27.6	60	15.6	0	0	---	0.00	30.219 
22:30	27.8	27.8	27.8	60	15.7	0	0	---	0.00	30.216 
22:35	28.2	28.2	28.2	59	15.7	0	1	112	0.00	30.216 
22:40	28.8	28.8	28.8	58	15.9	0	1	112	0.00	30.216 
22:45	29.3	29.3	29.3	58	16.4	0	1	112	0.00	30.206 
22:50	29.5	29.5	29.5	58	16.6	0	1	112	0.00	30.206 
22:55	29.8	29.8	29.8	57	16.4	0	1	112	0.00	30.206 
23:00	30.1	30.1	30.1	55	15.9	0	1	112	0.00	30.205 
23:05	30.4	30.4	30.4	55	16.2	0	2	112	0.00	30.205 
23:10	30.7	30.7	30.7	54	16.0	0	1	112	0.00	30.205 
23:15	31.0	31.0	31.0	54	16.3	0	2	112	0.00	30.189 
23:20	31.2	31.2	31.2	53	16.1	0	2	112	0.00	30.189 
23:25	31.5	31.5	31.5	52	15.9	0	2	112	0.00	30.189 
23:30	31.6	31.6	31.6	51	15.6	0	2	112	0.00	30.187 
23:35	31.8	31.8	31.8	51	15.8	0	1	112	0.00	30.187 
23:40	31.9	31.9	31.9	51	15.9	0	1	112	0.00	30.187 
23:45	32.1	32.1	32.1	51	16.0	0	2	112	0.00	30.186 
23:50	32.1	32.1	32.1	51	16.0	0	2	112	0.00	30.186 
23:55	32.2	32.2	32.2	51	16.1	1	3	112	0.00	30.186 

CoCoRaHS
IN-AL-39
A2 Web Hosting
Creative Commons License
GoDaddy
search engine by freefind advanced

loaded 2018-11-13 02:24:35 • last modified 2010-11-18 10:43:29
Privacy PolicyDisclaimer
• wx.awcolley.com is powered by PmWiki v.2002016 •
• all content (unless otherwise noted) © 2018 A W Colley